• Join FlightAware (Why Join?)
  • Login
  • US Flag 
03:52PM EDT


 

Airport Tracker/Info


-or-


 

Live Flight TrackerFlight Track Log ✈ UPS1132 ✈ 16-May-2013 ✈ KPHL - KBUF

Flight Track Log - Related Links

Times and Time Zones

All times are in EDT time to prevent confusion due to time zone crossing. See the UPS1132 flight status page for this flight to view local times or setup timezone preferences in your user account.

Time Position Orientation Groundspeed Altitude Reporting Facility
EDT Latitude Longitude Course Direction KTS MPH feet Rate Location/Type
03:09AM 39.8614 -75.2693 75° East 167 192 1,100  Level FlightAware ADS-B
03:10AM 39.8587 -75.2758 242° Southwest 176 203 1,400 1,800 Climbing FlightAware ADS-B
03:10AM 39.8519 -75.2911 240° Southwest 198 228 1,800 1,980 Climbing FlightAware ADS-B
03:10AM 39.8477 -75.3007 240° Southwest 205 236 2,200 3,000 Climbing FlightAware ADS-B
03:10AM 39.8412 -75.3152 240° Southwest 208 239 2,900 3,120 Climbing FlightAware ADS-B
03:10AM 39.8364 -75.3257 239° Southwest 212 244 3,400 2,760 Climbing FlightAware ADS-B
03:10AM 39.8349 -75.3293 242° Southwest 216 249 3,500 1,980 Climbing FlightAware ADS-B
03:10AM 39.8336 -75.3333 247° West 220 253 3,600 1,680 Climbing FlightAware ADS-B
03:10AM 39.8326 -75.3374 252° West 223 257 3,700 1,680 Climbing FlightAware ADS-B
03:11AM 39.8319 -75.3422 259° West 228 262 3,800 1,680 Climbing FlightAware ADS-B
03:11AM 39.8318 -75.3470 268° West 231 266 3,900 1,680 Climbing FlightAware ADS-B
03:11AM 39.8320 -75.3515 273° West 234 269 4,000 1,980 Climbing FlightAware ADS-B
03:11AM 39.8329 -75.3564 283° West 236 272 4,100 2,520 Climbing FlightAware ADS-B
03:11AM 39.8342 -75.3610 290° West 239 275 4,300 2,520 Climbing FlightAware ADS-B
03:11AM 39.8359 -75.3648 300° West 241 277 4,400 3,000 Climbing FlightAware ADS-B
03:11AM 39.8385 -75.3692 308° West 242 278 4,600 3,420 Climbing FlightAware ADS-B
03:11AM 39.8409 -75.3724 314° West 243 280 4,800 3,000 Climbing FlightAware ADS-B
03:11AM 39.8446 -75.3763 321° Northwest 246 283 5,000 3,420 Climbing FlightAware ADS-B
03:11AM 39.8475 -75.3788 327° Northwest 248 285 5,200 3,960 Climbing FlightAware ADS-B
03:11AM 39.8508 -75.3811 332° Northwest 250 288 5,400 3,960 Climbing FlightAware ADS-B
03:11AM 39.8544 -75.3831 337° Northwest 252 290 5,600 3,840 Climbing FlightAware ADS-B
03:11AM 39.8659 -75.3884 341° North 252 290 6,300 3,420 Climbing FlightAware ADS-B
03:12AM 39.8772 -75.3939 340° North 254 292 6,800 3,120 Climbing FlightAware ADS-B
03:12AM 39.8914 -75.4012 338° Northwest 258 297 7,500 3,660 Climbing FlightAware ADS-B
03:12AM 39.9060 -75.4083 340° North 253 291 8,400 3,900 Climbing FlightAware ADS-B
03:12AM 39.9202 -75.4149 340° North 252 290 9,200 3,060 Climbing FlightAware ADS-B
03:12AM 39.9360 -75.4231 338° Northwest 263 303 9,800 2,040 Climbing FlightAware ADS-B
03:13AM 39.9716 -75.4422 338° Northwest 293 337 10,700 1,800 Climbing FlightAware ADS-B
03:13AM 40.0120 -75.4618 340° North 322 371 11,600 1,800 Climbing FlightAware ADS-B
03:14AM 40.0497 -75.4785 341° North 344 396 12,400 1,560 Climbing FlightAware ADS-B
03:14AM 40.0958 -75.5000 340° North 354 407 13,100 1,380 Climbing FlightAware ADS-B
03:15AM 40.1427 -75.5223 340° North 358 412 13,800 2,100 Climbing FlightAware ADS-B
03:15AM 40.1897 -75.5446 340° North 362 417 15,200 2,700 Climbing FlightAware ADS-B
03:15AM 40.2048 -75.5529 337° Northwest 360 414 15,600 2,400 Climbing FlightAware ADS-B
03:16AM 40.2261 -75.5696 329° Northwest 357 411 16,200 2,460 Climbing FlightAware ADS-B
03:16AM 40.2638 -75.6053 324° Northwest 361 415 17,400 2,460 Climbing FlightAware ADS-B
03:17AM 40.3039 -75.6461 322° Northwest 364 419 18,600 2,160 Climbing FlightAware ADS-B
03:17AM 40.3434 -75.6874 321° Northwest 369 425 19,600 2,040 Climbing FlightAware ADS-B
03:18AM 40.3844 -75.7308 321° Northwest 375 432 20,700 2,040 Climbing FlightAware ADS-B
03:18AM 40.4258 -75.7746 321° Northwest 380 437 21,700 1,860 Climbing FlightAware ADS-B
03:19AM 40.4680 -75.8193 321° Northwest 386 444 22,600 1,560 Climbing FlightAware ADS-B
03:19AM 40.5097 -75.8635 321° Northwest 391 450 23,300 1,320 Climbing FlightAware ADS-B
03:20AM 40.5531 -75.9095 321° Northwest 393 452 24,000 720 Climbing FlightAware ADS-B
03:20AM 40.5869 -75.9455 321° Northwest 390 449 24,000  Level FlightAware ADS-B
03:21AM 40.6287 -75.9901 321° Northwest 392 451 24,000  Level FlightAware ADS-B
03:21AM 40.6712 -76.0354 321° Northwest 396 456 24,000  Level FlightAware ADS-B
03:22AM 40.7143 -76.0814 321° Northwest 397 457 24,000  Level FlightAware ADS-B
03:22AM 40.7585 -76.1286 321° Northwest 397 457 24,000  Level FlightAware ADS-B
03:23AM 40.8012 -76.1745 321° Northwest 397 457 24,000  Level FlightAware ADS-B
03:23AM 40.8446 -76.2210 321° Northwest 397 457 24,000  Level FlightAware ADS-B
03:24AM 40.8876 -76.2673 321° Northwest 397 457 24,000  Level FlightAware ADS-B
03:24AM 40.9310 -76.3139 321° Northwest 397 457 24,000  Level FlightAware ADS-B
03:25AM 40.9736 -76.3598 321° Northwest 396 456 24,000  Level FlightAware ADS-B
03:25AM 41.0169 -76.4066 321° Northwest 395 455 24,000  Level FlightAware ADS-B
03:26AM 41.0602 -76.4533 321° Northwest 394 453 24,000  Level FlightAware ADS-B
03:26AM 41.1051 -76.5022 321° Northwest 393 452 24,000  Level FlightAware ADS-B
03:27AM 41.1501 -76.5515 320° Northwest 391 450 24,000  Level FlightAware ADS-B
03:28AM 41.2268 -76.6357 320° Northwest 392 451 24,000  Level FlightAware ADS-B
03:28AM 41.2720 -76.6854 320° Northwest 392 451 24,000  Level FlightAware ADS-B
03:29AM 41.3160 -76.7338 320° Northwest 391 450 24,000  Level FlightAware ADS-B
03:29AM 41.3723 -76.7957 320° Northwest 388 447 24,000  Level FlightAware ADS-B
03:30AM 41.4080 -76.8350 320° Northwest 388 447 24,000  Level FlightAware
03:31AM 41.4670 -76.8990 321° Northwest 386 444 24,000  Level FlightAware
03:32AM 41.5290 -76.9690 320° Northwest 384 442 24,000  Level FlightAware
03:32AM 41.5820 -77.0270 321° Northwest 382 440 24,000  Level FlightAware
03:33AM 41.6380 -77.0890 320° Northwest 380 437 24,000  Level FlightAware
03:34AM 41.6900 -77.1480 320° Northwest 379 436 24,000  Level FlightAware
03:34AM 41.7600 -77.2260 320° Northwest 379 436 24,000  Level FlightAware
03:35AM 41.8150 -77.2870 320° Northwest 378 435 24,000  Level FlightAware
03:36AM 41.8680 -77.3470 320° Northwest 378 435 24,000  Level FlightAware
03:36AM 41.9290 -77.4150 320° Northwest 379 436 24,000  Level FlightAware
03:37AM 41.9790 -77.4710 320° Northwest 379 436 24,000  Level FlightAware
03:38AM 42.0420 -77.5430 320° Northwest 378 435 24,000  Level FlightAware
03:39AM 42.0950 -77.6020 320° Northwest 379 436 24,000  Level FlightAware
03:39AM 42.1430 -77.6570 320° Northwest 379 436 24,000 -120 Level FlightAware
03:40AM 42.2110 -77.7330 320° Northwest 379 436 23,900 -1,020 Descending FlightAware
03:41AM 42.2620 -77.7920 319° Northwest 376 433 22,500 -2,580 Descending FlightAware
03:41AM 42.3170 -77.8540 320° Northwest 369 425 20,500 -2,940 Descending FlightAware
03:42AM 42.3740 -77.9200 319° Northwest 362 417 18,400 -2,760 Descending FlightAware
03:43AM 42.4220 -77.9760 319° Northwest 356 410 16,600 -2,820 Descending FlightAware
03:43AM 42.4730 -78.0350 320° Northwest 346 398 14,700 -2,700 Descending FlightAware
03:44AM 42.5270 -78.0970 320° Northwest 339 390 12,800 -2,400 Descending FlightAware
03:45AM 42.5760 -78.1530 320° Northwest 334 384 11,300 -1,140 Descending FlightAware
03:46AM 42.6250 -78.2110 319° Northwest 284 327 11,200 -360 Descending FlightAware
03:46AM 42.6630 -78.2550 320° Northwest 256 295 10,800 -1,080 Descending FlightAware
03:47AM 42.7020 -78.3010 319° Northwest 254 292 9,700 -1,500 Descending FlightAware
03:47AM 42.7230 -78.3270 318° Northwest 255 293 9,100 -1,560 Descending FlightAware
03:48AM 42.7510 -78.3590 320° Northwest 256 295 8,300 -1,500 Descending FlightAware
03:48AM 42.7780 -78.3900 320° Northwest 254 292 7,600 -1,500 Descending FlightAware
03:49AM 42.7920 -78.4060 320° Northwest 252 290 7,200 -1,740 Descending FlightAware
03:49AM 42.8100 -78.4270 319° Northwest 250 288 6,600 -1,680 Descending FlightAware
03:49AM 42.8270 -78.4470 319° Northwest 248 285 6,100 -1,800 Descending FlightAware
03:50AM 42.8530 -78.4780 319° Northwest 243 280 5,100 -1,860 Descending FlightAware
03:50AM 42.8750 -78.5030 320° Northwest 238 274 4,400 -1,800 Descending FlightAware
03:51AM 42.8990 -78.5320 318° Northwest 239 275 3,500 -1,800 Descending FlightAware
03:51AM 42.9060 -78.5400 320° Northwest 240 276 3,200 -1,680 Descending FlightAware
03:51AM 42.9340 -78.5720 320° Northwest 245 282 2,400 -840 Descending FlightAware
03:52AM 42.9560 -78.5970 320° Northwest 219 252 2,400 -120 Level FlightAware
03:52AM 42.9760 -78.6210 319° Northwest 182 209 2,300 -180 Descending FlightAware
03:53AM 42.9820 -78.6320 307° West 161 185 2,300 -240 Level FlightAware
03:53AM 42.9850 -78.6470 285° West 149 171 2,200 -600 Descending FlightAware
03:53AM 42.9860 -78.6530 283° West 143 165 2,100 -720 Descending FlightAware
03:53AM 42.9830 -78.6680 255° West 122 140 1,900 -600 Descending FlightAware
03:54AM 42.9730 -78.6870 234° Southwest 125 144 1,600 -600 Descending FlightAware
03:54AM 42.9620 -78.7010 223° Southwest 128 147 1,400 -540 Descending FlightAware
03:54AM 42.9550 -78.7110 226° Southwest 123 142 1,200 -600 Descending FlightAware
04:02AM 42.9333 -78.7167 289° West  Level FlightAware Approximate
04:03AM 42.9404 -78.7306 289° West  Level Estimated